Home > Products > Valid Products > TAF

000
FTUS43 KDLH 272300
TAFINL
TAF
KINL 272327Z 2800/2824 VRB04KT P6SM SCT250
     FM281500 18008KT P6SM BKN250
     FM281900 21009G15KT P6SM SCT090 BKN250=



000
FTUS43 KDLH 272300
TAFDLH
TAF
KDLH 272327Z 2800/2824 25009KT P6SM SKC
     FM281100 21005KT P6SM SKC
     FM281800 21011G21KT P6SM BKN200=



000
FTUS43 KDLH 272300
TAFBRD
TAF
KBRD 272327Z 2800/2824 24006KT P6SM SKC
     FM280700 19004KT P6SM SKC
     FM281800 19011G17KT P6SM SCT050 BKN250
     FM282100 19011G21KT P6SM VCSH SCT025 OVC050=



000
FTUS43 KDLH 272300
TAFHYR
TAF
KHYR 272327Z 2800/2824 22007KT P6SM SKC
     FM280900 19006KT P6SM SKC
     FM281500 19010G17KT P6SM SKC=



000
FTUS43 KDLH 271700
TAFBRD
TAF
KBRD 271720Z 2718/2818 23008KT P6SM SKC
     FM280200 20004KT P6SM SKC=



000
FTUS43 KDLH 271700
TAFHYR
TAF
KHYR 271720Z 2718/2818 22007KT P6SM SKC
     FM280300 00000KT P6SM SKC=



000
FTUS43 KDLH 271700
TAFINL
TAF
KINL 271720Z 2718/2818 26008KT P6SM SKC
     FM280600 21004KT P6SM SKC=



000
FTUS43 KDLH 271700
TAFDLH
TAF
KDLH 271720Z 2718/2818 28009KT P6SM SKC
     FM280000 24006KT P6SM SKC=



000
FTUS43 KDLH 271600 AAA
TAFHYR
TAF AMD
KHYR 271639Z 2717/2812 22007KT P6SM SKC
     FM280300 00000KT P6SM SKC=



000
FTUS43 KDLH 271600 AAA
TAFINL
TAF AMD
KINL 271638Z 2717/2812 26008KT P6SM SKC
     FM280600 21004KT P6SM SKC=



000
FTUS43 KDLH 271600 AAA
TAFDLH
TAF AMD
KDLH 271635Z 2717/2812 28010KT P6SM SKC
     FM280000 24006KT P6SM SKC=



000
FTUS43 KDLH 271600 AAA
TAFDLH
TAF AMD
KDLH 271635Z 2717/2812 28010KT P6SM SKC
     FM280000 24006KT P6SM SKC=



000
FTUS43 KDLH 271100
TAFHYR
TAF
KHYR 271120Z 2712/2812 00000KT P6SM SKC
     FM271600 24006KT P6SM SKC
     FM280300 00000KT P6SM SKC=



000
FTUS43 KDLH 271100
TAFBRD
TAF
KBRD 271120Z 2712/2812 00000KT P6SM SKC
     FM271600 24008KT P6SM SKC
     FM280200 20005KT P6SM SKC=



000
FTUS43 KDLH 271100
TAFDLH
TAF
KDLH 271120Z 2712/2812 28007KT P6SM SKC
      TEMPO 2719/2723 27009G16KT
     FM280000 25007KT P6SM SKC=



000
FTUS43 KDLH 271100
TAFINL
TAF
KINL 271120Z 2712/2812 25005KT P6SM SKC
     FM272000 24008KT P6SM SKC
     FM280200 23005KT P6SM SKC=



000
FTUS43 KDLH 270500
TAFHYR
TAF
KHYR 270520Z 2706/2806 VRB03KT P6SM SKC
     FM271600 24007KT P6SM SKC
     FM280100 21005KT P6SM SKC=



000
FTUS43 KDLH 270500
TAFBRD
TAF
KBRD 270520Z 2706/2806 VRB04KT P6SM SKC
     FM271700 24007KT P6SM SKC
     FM280200 21005KT P6SM SKC=



000
FTUS43 KDLH 270500
TAFDLH
TAF
KDLH 270520Z 2706/2806 31007KT P6SM SKC
     FM271500 28006KT P6SM SKC
     FM272200 25009KT P6SM SKC=



000
FTUS43 KDLH 270500
TAFINL
TAF
KINL 270520Z 2706/2806 27005KT P6SM SCT250
     FM272200 24007KT P6SM SKC=



000
FTUS43 KDLH 270500
TAFINL
TAF
KINL 270520Z 2706/2806 27005KT P6SM SCT250
     FM272200 24007KT P6SM SKC=



000
FTUS43 KDLH 270500
TAFHYR
TAF
KHYR 270520Z 2706/2806 VRB03KT P6SM SKC
     FM271600 24007KT P6SM SKC
     FM280100 21005KT P6SM SKC=



000
FTUS43 KDLH 270500
TAFBRD
TAF
KBRD 270520Z 2706/2806 VRB04KT P6SM SKC
     FM271700 24007KT P6SM SKC
     FM280200 21005KT P6SM SKC=



000
FTUS43 KDLH 262300
TAFBRD
TAF
KBRD 262324Z 2700/2724 31008KT P6SM SKC
     FM270200 VRB05KT P6SM SKC
     FM271700 23008KT P6SM SKC=



000
FTUS43 KDLH 262300
TAFBRD
TAF
KBRD 262324Z 2700/2724 31008KT P6SM SKC
     FM270200 VRB05KT P6SM SKC
     FM271700 23008KT P6SM SKC=



000
FTUS43 KDLH 262300
TAFDLH
TAF
KDLH 262324Z 2700/2724 31010KT P6SM SKC
     FM270300 29007KT P6SM SKC
     FM271500 26008KT P6SM SKC=



000
FTUS43 KDLH 262300
TAFINL
TAF
KINL 262324Z 2700/2724 27006KT P6SM SKC
     FM271800 24008KT P6SM SKC=



000
FTUS43 KDLH 262300
TAFDLH
TAF
KDLH 262324Z 2700/2724 31010KT P6SM SKC
     FM270300 29007KT P6SM SKC
     FM271500 26008KT P6SM SKC=



000
FTUS43 KDLH 262300
TAFINL
TAF
KINL 262324Z 2700/2724 27006KT P6SM SKC
     FM271800 24008KT P6SM SKC=



000
FTUS43 KDLH 262300
TAFHYR
TAF
KHYR 262324Z 2700/2724 VRB04KT P6SM SKC
     FM271600 25007KT P6SM SKC=



000
FTUS43 KDLH 261900 AAA
TAFHYR
TAF AMD
KHYR 261916Z 2619/2718 35007KT P6SM SCT035
     FM270200 29002KT P6SM SKC=



000
FTUS43 KDLH 261700
TAFDLH
TAF
KDLH 261720Z 2618/2718 32011KT P6SM FEW030
     FM270100 29007KT P6SM SKC=



000
FTUS43 KDLH 261700
TAFINL
TAF
KINL 261720Z 2618/2718 30010KT P6SM FEW030
     FM270100 27006KT P6SM SKC=



000
FTUS43 KDLH 261700
TAFHYR
TAF
KHYR 261720Z 2618/2718 36007KT P6SM BKN030
     FM262100 34006KT P6SM SCT030
     FM270200 29002KT P6SM SKC=



000
FTUS43 KDLH 261700
TAFBRD
TAF
KBRD 261720Z 2618/2718 33007KT P6SM FEW030
     FM270100 30005KT P6SM SKC=



000
FTUS43 KDLH 261700
TAFINL
TAF
KINL 261720Z 2618/2718 30010KT P6SM FEW030
     FM270100 27006KT P6SM SKC=



000
FTUS43 KDLH 261700
TAFHYR
TAF
KHYR 261720Z 2618/2718 36007KT P6SM BKN030
     FM262100 34006KT P6SM SCT030
     FM270200 29002KT P6SM SKC=



000
FTUS43 KDLH 261700
TAFBRD
TAF
KBRD 261720Z 2618/2718 33007KT P6SM FEW030
     FM270100 30005KT P6SM SKC=



000
FTUS43 KDLH 261600 AAA
TAFHYR
TAF AMD
KHYR 261659Z 2617/2712 36007KT P6SM BKN030
     FM262100 34006KT P6SM SCT030
     FM270200 00000KT P6SM SKC=



000
FTUS43 KDLH 261100
TAFBRD
TAF
KBRD 261120Z 2612/2712 32006KT P6SM SKC
     FM261900 32007KT P6SM SCT025
     FM270000 30008KT P6SM SKC=



000
FTUS43 KDLH 261100
TAFINL
TAF
KINL 261120Z 2612/2712 31008KT P6SM FEW150
     FM261800 29009KT P6SM FEW030
     FM270000 27006KT P6SM SCT250=



000
FTUS43 KDLH 261100
TAFDLH
TAF
KDLH 261120Z 2612/2712 32007KT P6SM SKC
     FM261800 30011KT P6SM SCT030
     FM270000 29008KT P6SM SKC=



000
FTUS43 KDLH 261100
TAFHYR
TAF
KHYR 261120Z 2612/2712 00000KT P6SM SKC
     FM261800 33005KT P6SM SCT025
     FM270200 00000KT P6SM SKC=



000
FTUS43 KDLH 261100
TAFDLH
TAF
KDLH 261120Z 2612/2712 32007KT P6SM SKC
     FM261800 30011KT P6SM SCT030
     FM270000 29008KT P6SM SKC=



000
FTUS43 KDLH 261100
TAFHYR
TAF
KHYR 261120Z 2612/2712 00000KT P6SM SKC
     FM261800 33005KT P6SM SCT025
     FM270200 00000KT P6SM SKC=



000
FTUS43 KDLH 261100
TAFBRD
TAF
KBRD 261120Z 2612/2712 32006KT P6SM SKC
     FM261900 32007KT P6SM SCT025
     FM270000 30008KT P6SM SKC=



000
FTUS43 KDLH 261100
TAFINL
TAF
KINL 261120Z 2612/2712 31008KT P6SM FEW150
     FM261800 29009KT P6SM FEW030
     FM270000 27006KT P6SM SCT250=



000
FTUS43 KDLH 260500
TAFBRD
TAF
KBRD 260521Z 2606/2706 33010KT P6SM SKC
     FM261200 33008KT P6SM SCT100
     FM270000 27008KT P6SM SKC=



000
FTUS43 KDLH 260500
TAFDLH
TAF
KDLH 260521Z 2606/2706 34010KT P6SM SKC
     FM261200 32012KT P6SM SCT250
     FM270000 27008KT P6SM SKC=



000
FTUS43 KDLH 260500
TAFHYR
TAF
KHYR 260521Z 2606/2706 VRB05KT P6SM SKC
     FM261200 33008KT P6SM SCT100
     FM270000 27008KT P6SM SKC=



000
FTUS43 KDLH 260500
TAFINL
TAF
KINL 260521Z 2606/2706 33008KT P6SM SKC
     FM261200 31008KT P6SM FEW100
     FM270000 27008KT P6SM SKC=



000
FTUS43 KDLH 252300
TAFHYR
TAF
KHYR 252323Z 2600/2624 36006KT P6SM SCT120
     FM260200 34003KT P6SM SKC
     FM261200 33008KT P6SM SCT100=



000
FTUS43 KDLH 252300
TAFINL
TAF
KINL 252323Z 2600/2624 33011KT P6SM SKC
     FM261200 31008KT P6SM FEW100=



000
FTUS43 KDLH 252300
TAFBRD
TAF
KBRD 252323Z 2600/2624 35010KT P6SM SKC
     FM261200 33008KT P6SM SCT100=



000
FTUS43 KDLH 252300
TAFBRD
TAF
KBRD 252323Z 2600/2624 35010KT P6SM SKC
     FM261200 33008KT P6SM SCT100=



000
FTUS43 KDLH 252300
TAFINL
TAF
KINL 252323Z 2600/2624 33011KT P6SM SKC
     FM261200 31008KT P6SM FEW100=



000
FTUS43 KDLH 252300
TAFDLH
TAF
KDLH 252323Z 2600/2624 33010KT P6SM SKC
     FM261200 32012KT P6SM SCT250=



000
FTUS43 KDLH 252300
TAFHYR
TAF
KHYR 252323Z 2600/2624 36006KT P6SM SCT120
     FM260200 34003KT P6SM SKC
     FM261200 33008KT P6SM SCT100=



000
FTUS43 KDLH 252200 AAA
TAFHYR
TAF AMD
KHYR 252216Z 2522/2618 36006KT P6SM SCT120
     FM260300 34003KT P6SM SKC
     FM261200 33006KT P6SM SCT250=



000
FTUS43 KDLH 252200 AAA
TAFDLH
TAF AMD
KDLH 252216Z 2522/2618 33008KT P6SM SCT120
     FM261200 32006KT P6SM SCT250=



000
FTUS43 KDLH 252200 AAA
TAFDLH
TAF AMD
KDLH 252216Z 2522/2618 33008KT P6SM SCT120
     FM261200 32006KT P6SM SCT250=



000
FTUS43 KDLH 252200 AAA
TAFHYR
TAF AMD
KHYR 252216Z 2522/2618 36006KT P6SM SCT120
     FM260300 34003KT P6SM SKC
     FM261200 33006KT P6SM SCT250=



000
FTUS43 KDLH 252200 AAA
TAFINL
TAF AMD
KINL 252210Z 2522/2618 33008KT P6SM FEW200
     FM260000 31006KT P6SM FEW200=



000
FTUS43 KDLH 252005 AAA
TAFBRD
TAF AMD
KBRD 252005Z 2520/2618 35010KT P6SM FEW080
     FM260000 34008KT P6SM SKC
     FM261200 33007KT P6SM SCT250=



000
FTUS43 KDLH 251720
TAFHYR
TAF
KHYR 251720Z 2518/2618 35006KT P6SM SCT120
     FM260300 34003KT P6SM SKC
     FM261200 33006KT P6SM SCT250=



000
FTUS43 KDLH 251720
TAFINL
TAF
KINL 251720Z 2518/2618 34008KT P6SM SKC
     FM260000 32006KT P6SM SKC
     FM261200 30006KT P6SM SCT250=



000
FTUS43 KDLH 251720
TAFHYR
TAF
KHYR 251720Z 2518/2618 35006KT P6SM SCT120
     FM260300 34003KT P6SM SKC
     FM261200 33006KT P6SM SCT250=



000
FTUS43 KDLH 251720
TAFINL
TAF
KINL 251720Z 2518/2618 34008KT P6SM SKC
     FM260000 32006KT P6SM SKC
     FM261200 30006KT P6SM SCT250=



000
FTUS43 KDLH 251100
TAFBRD
TAF
KBRD 251120Z 2512/2612 02005KT P6SM OVC100
     FM251500 01007KT P6SM SCT080 BKN120
     FM251800 35008KT P6SM SCT025 BKN060
     FM260000 34008KT P6SM SCT100=



000
FTUS43 KDLH 251100
TAFHYR
TAF
KHYR 251120Z 2512/2612 00000KT P6SM SCT110
     FM251500 03004KT P6SM BKN120
     FM251900 34004KT P6SM SCT025 BKN060
     FM260200 00000KT P6SM SCT100=



000
FTUS43 KDLH 251100
TAFINL
TAF
KINL 251120Z 2512/2612 32004KT P6SM SKC
     FM251500 33007KT P6SM SCT150
     FM251700 32008KT P6SM SCT025 BKN050
     FM252300 32006KT P6SM SCT100=



000
FTUS43 KDLH 251100
TAFDLH
TAF
KDLH 251120Z 2512/2612 34006KT P6SM FEW120
     FM251500 35008KT P6SM SCT120
     FM251800 34010KT P6SM SCT025 BKN060
     FM252300 34007KT P6SM SCT100=



000
FTUS43 KDLH 250500
TAFBRD
TAF
KBRD 250520Z 2506/2606 32006KT P6SM SCT150
     FM251500 01007KT P6SM BKN120
     FM251800 35008KT P6SM SCT025 BKN080
     FM260000 34008KT P6SM SCT100=



000
FTUS43 KDLH 250500
TAFINL
TAF
KINL 250520Z 2506/2606 31006KT P6SM SCT150
     FM251500 33007KT P6SM SCT150
     FM251700 32008KT P6SM SCT025 BKN080
     FM252300 32006KT P6SM SCT100=



000
FTUS43 KDLH 250500
TAFDLH
TAF
KDLH 250520Z 2506/2606 31007KT P6SM SCT150
     FM251500 35008KT P6SM SCT120
     FM251800 34009KT P6SM SCT025 BKN080
     FM252300 34007KT P6SM SCT100=



000
FTUS43 KDLH 250500
TAFHYR
TAF
KHYR 250520Z 2506/2606 VRB03KT P6SM SCT150
     FM251500 02004KT P6SM BKN120
     FM251900 34004KT P6SM SCT025 BKN080
     FM252300 36003KT P6SM SCT100=



    US Dept of Commerce
    National Oceanic and Atmospheric Administration
    National Weather Service
    1325 East West Highway
    Silver Spring, MD 20910
    Page Author: NWS Internet Services Team
Disclaimer
Information Quality
Credits
Glossary
Privacy Policy
Freedom of Information Act (FOIA)
About Us
Career Opportunities